createdAt,value
2022-10-05T10:30:19.011Z,27.30
2022-10-05T10:31:47.905Z,21.73
2022-10-05T10:33:22.417Z,13.95
2022-10-05T10:34:50.143Z,12.48
2022-10-05T10:36:01.601Z,23.88
2022-10-05T10:37:36.281Z,25.02
2022-10-05T10:38:58.549Z,23.00
2022-10-05T10:40:21.288Z,8.63
2022-10-05T10:42:01.360Z,16.02
2022-10-05T10:43:41.178Z,21.40
2022-10-05T10:45:10.435Z,25.77
2022-10-05T10:46:28.110Z,21.95
2022-10-05T10:47:49.895Z,25.08
2022-10-05T10:49:17.017Z,12.18
2022-10-05T10:50:35.498Z,11.77
2022-10-05T10:52:13.290Z,22.08
2022-10-05T10:53:34.415Z,3.85
2022-10-05T10:55:16.942Z,42.23
2022-10-05T10:56:32.044Z,13.68
2022-10-05T10:57:51.320Z,16.95
2022-10-05T10:59:25.559Z,16.85
2022-10-05T11:00:55.192Z,6.53
2022-10-05T11:02:38.916Z,8.55
2022-10-05T11:04:16.368Z,21.85
2022-10-05T11:05:33.908Z,10.38
2022-10-05T11:07:08.618Z,11.35
2022-10-05T11:08:58.580Z,27.95
2022-10-05T11:10:19.905Z,17.42
2022-10-05T11:11:52.498Z,11.13
2022-10-05T11:13:27.477Z,18.55
2022-10-05T11:14:48.256Z,5.25
2022-10-05T11:16:27.309Z,23.35
2022-10-05T11:17:59.600Z,6.57
2022-10-05T11:21:08.151Z,3.40
2022-10-05T11:22:32.487Z,9.90
2022-10-05T11:24:06.486Z,11.43
2022-10-05T11:25:29.278Z,17.58
2022-10-05T11:26:56.469Z,2.47
2022-10-05T11:28:17.880Z,51.45
2022-10-05T11:29:30.222Z,9.95
2022-10-05T11:31:01.842Z,23.42
2022-10-05T11:32:36.942Z,16.08
2022-10-05T11:34:10.601Z,12.70
2022-10-05T11:35:52.341Z,18.52
2022-10-05T11:37:18.768Z,13.85
2022-10-05T11:38:51.335Z,10.77
2022-10-05T11:40:29.558Z,8.65
2022-10-05T11:42:04.674Z,3.40
2022-10-05T11:43:41.828Z,19.45
2022-10-05T11:45:16.289Z,16.20
2022-10-05T11:46:30.732Z,16.75
2022-10-05T11:47:52.146Z,3.17
2022-10-05T11:49:19.557Z,8.02
2022-10-05T11:50:30.538Z,4.60
2022-10-05T11:51:48.438Z,9.43
2022-10-05T11:52:59.121Z,5.38
2022-10-05T11:54:23.447Z,5.70
2022-10-05T11:55:32.864Z,6.28
2022-10-05T11:56:40.153Z,6.25
2022-10-05T11:57:51.465Z,13.50
2022-10-05T11:58:58.519Z,14.27
2022-10-05T12:00:14.681Z,13.93
2022-10-05T12:01:28.723Z,6.18
2022-10-05T12:02:59.427Z,3.80
2022-10-05T12:04:16.476Z,6.60
2022-10-05T12:05:22.354Z,6.45
2022-10-05T12:06:53.957Z,7.93
2022-10-05T12:08:08.769Z,5.18
2022-10-05T12:09:29.724Z,1.77
2022-10-05T12:10:40.872Z,18.42
2022-10-05T12:11:58.558Z,2.58
2022-10-05T12:13:27.974Z,6.07
2022-10-05T12:14:44.137Z,8.30
2022-10-05T12:15:53.427Z,9.95
2022-10-05T12:17:03.467Z,13.85
2022-10-05T12:18:14.014Z,5.15
2022-10-05T12:19:28.391Z,3.75
2022-10-05T12:20:41.225Z,11.73
2022-10-05T12:21:52.884Z,7.57
2022-10-05T12:24:11.313Z,26.63
2022-10-05T12:25:28.484Z,12.93
2022-10-05T12:26:38.044Z,2.58
2022-10-05T12:27:44.126Z,27.58
2022-10-05T12:28:52.955Z,6.53
2022-10-05T12:30:03.641Z,7.55
2022-10-05T12:31:23.640Z,1.30
2022-10-05T12:32:36.401Z,8.73
2022-10-05T12:33:46.389Z,17.70
2022-10-05T12:35:01.870Z,23.00
2022-10-05T12:36:13.180Z,20.20
2022-10-05T12:37:40.208Z,20.10
2022-10-05T12:38:51.859Z,6.05
2022-10-05T12:41:11.148Z,31.38
2022-10-05T12:42:26.168Z,20.55
2022-10-05T12:43:41.273Z,13.65
2022-10-05T12:45:15.403Z,17.52
2022-10-05T12:46:33.893Z,17.95
2022-10-05T12:47:53.927Z,18.98
2022-10-05T12:49:25.592Z,16.65
2022-10-05T12:50:35.044Z,18.63
2022-10-05T12:51:42.361Z,18.33
2022-10-05T12:53:04.332Z,43.40
2022-10-05T12:54:18.646Z,7.55
2022-10-05T12:55:26.329Z,13.60
2022-10-05T12:56:45.504Z,7.63
2022-10-05T12:58:00.877Z,20.63
2022-10-05T12:59:14.425Z,14.88
2022-10-05T13:00:23.156Z,8.75
2022-10-05T13:01:39.641Z,10.27
2022-10-05T13:02:49.221Z,65.53
2022-10-05T13:03:58.882Z,12.10
2022-10-05T13:05:21.358Z,3.90
2022-10-05T13:06:32.920Z,14.98
2022-10-05T13:07:50.584Z,3.33
2022-10-05T13:09:06.590Z,12.65
2022-10-05T13:10:21.207Z,1.88
2022-10-05T13:11:35.257Z,7.03
2022-10-05T13:12:51.237Z,10.27
2022-10-05T13:14:02.505Z,6.78
2022-10-05T13:15:18.198Z,16.52
2022-10-05T13:16:31.563Z,19.50
2022-10-05T13:17:42.371Z,14.70
2022-10-05T13:18:59.122Z,13.87
2022-10-05T13:20:14.802Z,9.13
2022-10-05T13:21:24.904Z,6.50
2022-10-05T13:22:37.473Z,9.07
2022-10-05T13:23:57.137Z,4.15
2022-10-05T13:25:19.776Z,4.70
2022-10-05T13:26:28.208Z,7.68
2022-10-05T13:27:38.184Z,11.10
2022-10-05T13:28:47.660Z,1.90
2022-10-05T13:29:55.963Z,12.77
2022-10-05T13:31:07.889Z,7.28
2022-10-05T13:32:16.566Z,4.47
2022-10-05T13:33:29.586Z,4.75
2022-10-05T13:34:40.324Z,7.65
2022-10-05T13:35:52.829Z,15.63
2022-10-05T13:37:08.673Z,23.55
2022-10-05T13:38:23.645Z,14.90
2022-10-05T13:39:39.347Z,6.95
2022-10-05T13:40:51.273Z,2.47
2022-10-05T13:42:00.127Z,16.48
2022-10-05T13:43:19.161Z,8.07
2022-10-05T13:44:32.606Z,18.63
2022-10-05T13:45:45.773Z,10.30
2022-10-05T13:46:50.179Z,11.85
2022-10-05T13:48:11.906Z,19.75
2022-10-05T13:49:26.626Z,27.00
2022-10-05T13:50:34.135Z,28.42
2022-10-05T13:51:46.886Z,23.23
2022-10-05T13:52:56.547Z,35.50
2022-10-05T13:54:07.561Z,10.70
2022-10-05T13:55:23.853Z,16.48
2022-10-05T13:56:30.738Z,7.30
2022-10-05T13:57:48.341Z,28.92
2022-10-05T13:59:01.333Z,15.32
2022-10-05T14:00:13.925Z,11.77
2022-10-05T14:01:25.148Z,39.58
2022-10-05T14:02:30.492Z,17.10
2022-10-05T14:03:37.590Z,40.50
2022-10-05T14:04:47.059Z,19.95
2022-10-05T14:05:57.778Z,18.70
2022-10-05T14:07:23.403Z,3.17
2022-10-05T14:08:34.690Z,29.52
2022-10-05T14:09:37.128Z,17.67
2022-10-05T14:10:44.147Z,9.75
2022-10-05T14:11:53.556Z,23.90
2022-10-05T14:12:58.255Z,21.25
2022-10-05T14:14:15.253Z,12.13
2022-10-05T14:15:21.473Z,9.07
2022-10-05T14:16:28.174Z,8.63
2022-10-05T14:17:43.903Z,8.43
2022-10-05T14:18:58.565Z,25.65
2022-10-05T14:20:03.044Z,27.88
2022-10-05T14:21:22.293Z,17.00
2022-10-05T14:22:27.631Z,35.05
2022-10-05T14:23:32.499Z,27.90
2022-10-05T14:24:45.024Z,34.80
2022-10-05T14:25:54.200Z,10.27
2022-10-05T14:26:58.773Z,16.95
2022-10-05T14:28:06.387Z,11.63
2022-10-05T14:29:19.130Z,8.98
2022-10-05T14:30:25.835Z,43.97
2022-10-05T14:31:31.329Z,14.57
2022-10-05T14:32:50.464Z,13.20
2022-10-05T14:33:52.670Z,12.70
2022-10-05T14:35:15.761Z,14.57
2022-10-05T14:36:35.149Z,10.75
2022-10-05T14:37:53.386Z,46.20
2022-10-05T14:38:57.918Z,43.78
2022-10-05T14:40:23.554Z,32.90
2022-10-05T14:41:28.532Z,10.35
2022-10-05T14:42:47.274Z,7.25
2022-10-05T14:43:51.684Z,10.43
2022-10-05T14:45:02.843Z,11.00
2022-10-05T14:46:27.190Z,14.45
2022-10-05T14:47:39.710Z,10.90
2022-10-05T14:50:10.799Z,32.78
2022-10-05T14:51:31.929Z,17.35
2022-10-05T14:52:34.857Z,42.47
2022-10-05T14:53:58.780Z,21.63
2022-10-05T14:55:08.690Z,23.80
2022-10-05T14:56:36.873Z,18.25
2022-10-05T14:57:49.908Z,8.40
2022-10-05T14:59:22.346Z,6.47
2022-10-05T15:00:26.135Z,9.52
2022-10-05T15:01:35.197Z,12.05
2022-10-05T15:03:21.554Z,6.95
2022-10-05T15:04:34.477Z,19.98
2022-10-05T15:05:47.712Z,7.30
2022-10-05T15:07:03.845Z,13.50
2022-10-05T15:08:21.087Z,10.80
2022-10-05T15:09:42.390Z,5.43
2022-10-05T15:10:51.131Z,9.48
2022-10-05T15:11:59.283Z,11.18
2022-10-05T15:13:15.229Z,10.13
2022-10-05T15:14:24.751Z,12.85
2022-10-05T15:15:34.582Z,9.48
2022-10-05T15:16:42.208Z,6.03
2022-10-05T15:17:52.582Z,37.97
2022-10-05T15:19:05.646Z,61.22
2022-10-05T15:20:24.631Z,33.97
2022-10-05T15:21:43.944Z,11.80
2022-10-05T15:22:55.955Z,32.67
2022-10-05T15:24:02.907Z,5.65
2022-10-05T15:25:17.712Z,2.88
2022-10-05T15:26:33.377Z,12.20
2022-10-05T15:28:04.209Z,7.60
2022-10-05T15:29:20.518Z,15.90
2022-10-05T15:30:24.634Z,8.60
2022-10-05T15:31:39.497Z,20.20
2022-10-05T15:32:59.828Z,21.83
2022-10-05T15:34:08.106Z,12.93
2022-10-05T15:35:37.349Z,6.25
2022-10-05T15:36:48.234Z,2.33
2022-10-05T15:37:55.483Z,15.52
2022-10-05T15:39:08.404Z,24.92
2022-10-05T15:40:27.072Z,40.10
2022-10-05T15:41:53.208Z,20.90
2022-10-05T15:43:01.810Z,10.93
2022-10-05T15:44:18.422Z,2.40
2022-10-05T15:45:29.960Z,25.40
2022-10-05T15:47:52.405Z,7.22
2022-10-05T15:49:08.582Z,32.50
2022-10-05T15:50:22.517Z,35.88
2022-10-05T15:51:42.417Z,23.20
2022-10-05T15:52:51.317Z,21.10
2022-10-05T15:54:16.546Z,26.02
2022-10-05T15:55:32.726Z,24.77
2022-10-05T15:56:38.719Z,23.67
2022-10-05T15:57:51.891Z,9.38
2022-10-05T15:58:55.624Z,19.05
2022-10-05T16:00:04.688Z,18.70
2022-10-05T16:01:11.934Z,33.17
2022-10-05T16:02:22.713Z,39.22
2022-10-05T16:03:38.295Z,25.27
2022-10-05T16:04:48.181Z,5.18
2022-10-05T16:06:09.000Z,1.13
2022-10-05T16:07:32.043Z,4.70
2022-10-05T16:08:54.351Z,19.27
2022-10-05T16:10:11.811Z,5.43
2022-10-05T16:11:36.785Z,8.57
2022-10-05T16:12:50.927Z,16.60
2022-10-05T16:14:05.387Z,10.88
2022-10-05T16:15:26.581Z,7.20
2022-10-05T16:16:38.154Z,6.18
2022-10-05T16:18:12.240Z,20.13
2022-10-05T16:19:22.199Z,14.85
2022-10-05T16:20:45.919Z,381.60
2022-10-05T16:21:56.765Z,480.08
2022-10-05T16:23:08.096Z,316.60
2022-10-05T16:24:24.705Z,175.35
2022-10-05T16:25:35.340Z,116.60
2022-10-05T16:26:58.672Z,198.77
2022-10-05T16:28:10.985Z,183.27
2022-10-05T16:29:25.028Z,345.40
2022-10-05T16:30:40.384Z,409.70
2022-10-05T16:31:56.943Z,450.73
2022-10-05T16:33:08.249Z,433.98
2022-10-05T16:34:23.368Z,380.20
2022-10-05T16:35:38.511Z,406.02
2022-10-05T16:36:55.951Z,457.45
2022-10-05T16:38:08.123Z,447.35
2022-10-05T16:39:18.723Z,541.65
2022-10-05T16:40:31.016Z,570.85
2022-10-05T16:41:39.098Z,820.13
2022-10-05T16:42:57.968Z,621.95
2022-10-05T16:44:13.041Z,782.35
2022-10-05T16:45:30.062Z,899.30
2022-10-05T16:46:42.544Z,750.65
2022-10-05T16:47:50.658Z,562.00
2022-10-05T16:49:04.152Z,456.00
2022-10-05T16:50:27.750Z,414.42
2022-10-05T16:51:40.693Z,441.95
2022-10-05T16:52:47.258Z,258.63
2022-10-05T16:54:01.334Z,168.38
2022-10-05T16:55:13.407Z,91.63
2022-10-05T16:56:21.288Z,92.00
2022-10-05T16:57:28.361Z,85.07
2022-10-05T16:58:47.890Z,63.22
2022-10-05T17:00:15.535Z,39.95
2022-10-05T17:01:42.224Z,28.48
2022-10-05T17:03:08.286Z,41.72
2022-10-05T17:04:31.584Z,65.05
2022-10-05T17:05:55.180Z,8.88
2022-10-05T17:07:14.404Z,29.73
2022-10-05T17:08:36.756Z,16.17
2022-10-05T17:10:05.936Z,50.08
2022-10-05T17:11:19.299Z,22.35
2022-10-05T17:12:42.431Z,20.05
2022-10-05T17:14:08.189Z,35.90
2022-10-05T17:15:29.704Z,16.60
2022-10-05T17:16:48.192Z,17.77
2022-10-05T17:18:04.030Z,24.30
2022-10-05T17:19:16.599Z,36.38
2022-10-05T17:20:42.440Z,27.88
2022-10-05T17:21:50.155Z,29.10
2022-10-05T17:22:59.289Z,18.10
2022-10-05T17:24:15.477Z,27.38
2022-10-05T17:25:25.290Z,55.58
2022-10-05T17:26:52.831Z,61.50
2022-10-05T17:28:00.294Z,24.25
2022-10-05T17:29:16.647Z,48.40
2022-10-05T17:30:37.771Z,23.35
2022-10-05T17:32:02.056Z,44.60
2022-10-05T17:33:22.489Z,11.95
2022-10-05T17:34:29.242Z,6.70
2022-10-05T17:36:00.979Z,8.10
2022-10-05T17:37:17.981Z,25.40
2022-10-05T17:38:25.114Z,23.40
2022-10-05T17:39:46.813Z,27.75
2022-10-05T17:41:18.380Z,14.13
2022-10-05T17:42:51.740Z,15.85
2022-10-05T17:44:27.208Z,5.60
2022-10-05T17:45:54.365Z,20.15
2022-10-05T17:47:00.844Z,23.77
2022-10-05T17:48:05.392Z,15.75
2022-10-05T17:49:23.316Z,25.13
2022-10-05T17:50:54.506Z,30.98
2022-10-05T17:52:14.238Z,16.60
2022-10-05T17:53:50.019Z,13.32
2022-10-05T17:55:30.164Z,31.35
2022-10-05T17:56:56.044Z,15.07
2022-10-05T17:58:00.775Z,40.67
2022-10-05T17:59:07.494Z,14.57
2022-10-05T18:00:32.474Z,20.17
2022-10-05T18:01:42.226Z,28.58
2022-10-05T18:02:44.321Z,25.23
2022-10-05T18:03:51.836Z,34.70
2022-10-05T18:05:05.424Z,34.47
2022-10-05T18:06:32.387Z,29.85
2022-10-05T18:07:38.357Z,7.47
2022-10-05T18:08:41.507Z,19.73
2022-10-05T18:10:22.152Z,15.55
2022-10-05T18:11:40.636Z,19.83
2022-10-05T18:12:50.584Z,12.50
2022-10-05T18:14:16.104Z,32.30
2022-10-05T18:15:49.357Z,53.40
2022-10-05T18:17:02.514Z,106.75
2022-10-05T18:18:38.710Z,24.30
2022-10-05T18:19:41.594Z,25.58
2022-10-05T18:21:18.474Z,202.38
2022-10-05T18:22:30.969Z,180.05
2022-10-05T18:23:36.223Z,246.82
2022-10-05T18:25:06.399Z,249.00
2022-10-05T18:26:26.555Z,255.43
2022-10-05T18:28:07.075Z,254.40
2022-10-05T18:29:39.192Z,244.07
2022-10-05T18:31:02.239Z,275.63
2022-10-05T18:32:14.101Z,226.82
2022-10-05T18:33:50.032Z,231.38
2022-10-05T18:35:02.192Z,331.83
2022-10-05T18:36:22.217Z,354.67
